x

South Brooks (46132) Wave Buoy

8:00 - Wed 23rd Jul 2014 All times are PDT. -7 hours from GMT.

  • Sig Wave height 4.9ft
  • Peak Period 7s
  • Wind
    9mph
  • Sea Temp 59°f
  • Air Temp 58°f
  • Sea Pressure 1016.9mb
  • South Brooks
  • South Brooks

More Historic Weather Station data

Upgrade to MSW Pro to gain access to the past 30 days of data for over 8000 Wavebouys and Weather Stations around the globe.

Join Pro

Comparision Forecast

View Surf forecast
   
mer. 07/23 8:00 5ft 7s 9
mph
1016.9mb 59f 58f
7:00 4.5ft 8s 9
mph
1016.6mb 59f 58f
6:00 4.5ft 6s 7 9 mph 1016.6mb 59f 58f
5:00 4.5ft 8s 4 7 mph 1016.6mb 59f 58f
4:00 4.5ft 8s 2 4 mph 1016.2mb 59f 58f
3:00 4ft 9s 11 13 mph 1015.7mb 59f 58f
2:00 4ft 8s 13 16 mph 1014.6mb 59f 58f
1:00 4ft 9s 13 16 mph 1014.2mb 59f 58f
12:00 4ft 9s 11 13 mph 1014.2mb 58f 58f
11:00 4ft 8s 9 11 mph 1014.3mb 58f 57f
10:00 4ft 9s 11 13 mph 1014.2mb 58f 57f
9:00 4ft 8s 13 16 mph 1014.2mb 58f 56f
8:00 3.5ft 9s 9 11 mph 1014.4mb 58f 57f
7:00 4.5ft 8s 9 11 mph 1014.1mb 58f 57f
6:00 4ft 8s 9
mph
1014.4mb 58f 57f
5:00 4.5ft 8s 13 18 mph 1014.4mb 58f 57f
4:00 4.5ft 9s 9 11 mph 1014.8mb 58f 58f
3:00 4.5ft 9s 9 11 mph 1015.2mb 58f 57f
2:00 4.5ft 8s 9
mph
1015.6mb 58f 58f
1:00 5ft 9s 9 11 mph 1016.2mb 58f 58f
12:00 5ft 9s 9 11 mph 1016.6mb 58f 58f
mar. 07/22 11:00 4.5ft 8s 9
mph
1016.8mb 58f 57f
10:00 5ft 10s 9 11 mph 1016.9mb 58f 57f
9:00 5ft 9s 9 11 mph 1017.1mb 59f 58f
8:00 5.5ft 9s 2
mph
1017.1mb 59f 58f
7:00 5ft 9s 2 4 mph 1017.1mb 59f 57f
6:00 6ft 9s 9 11 mph 1017.5mb 59f 57f
5:00 5ft 8s 11 16 mph 1017.7mb 58f 58f
4:00 6ft 8s 11 13 mph 1017.7mb 58f 58f
3:00 6ft 9s 7 9 mph 1017.7mb 59f 58f
2:00 5.5ft 8s 4 7 mph 1017.2mb 59f 58f
1:00 6ft 8s 9 11 mph 1016.7mb 58f 57f
12:00 6ft 8s 7 11 mph 1016.2mb 58f 58f
11:00 6ft 8s 9 11 mph 1015.8mb 58f 58f
10:00 6ft 8s 9 11 mph 1015.3mb 58f 57f
9:00 6ft 7s 13 16 mph 1015mb 58f 56f
8:00 5.5ft 8s 13 18 mph 1014.7mb 58f 57f
7:00 6ft 8s 13 16 mph 1014.5mb 58f 56f
6:00 5ft 8s 18 20 mph 1014mb 58f 56f
5:00 5ft 8s 18 20 mph 1014mb 58f 56f
4:00 4.5ft 8s 18 22 mph 1014.2mb 58f 55f
3:00 5ft 8s 16 20 mph 1014.4mb 58f 56f
2:00 4.5ft 8s 18 22 mph 1014.6mb 58f 57f
1:00 5ft 8s 18 22 mph 1014.4mb 58f 57f
12:00 5ft 7s 16 20 mph 1014.5mb 58f 56f
lun. 07/21 11:00 5ft 6s 13 16 mph 1014.6mb 58f 56f
10:00 5ft 8s 16 18 mph 1014.9mb 58f 55f
9:00 5ft 7s 13 16 mph 1014.8mb 58f 55f
8:00 5ft 10s 18 22 mph 1014.8mb 58f 55f
7:00 5ft 10s 16 20 mph 1014.9mb 58f 58f
6:00 4.5ft 9s 16 18 mph 1015.1mb 58f 58f
5:00 4.5ft 10s 16 18 mph 1015.5mb 58f 58f
4:00 4ft 9s 18 20 mph 1015.9mb 58f 57f
3:00 4ft 8s 16 20 mph 1016.3mb 58f 57f
2:00 4ft 10s 13 18 mph 1016.2mb 58f 58f
1:00 4.5ft 8s 13 18 mph 1016.3mb 59f 57f
12:00 4.5ft 9s 11 13 mph 1016.3mb 59f 58f
11:00 5ft 9s 9 11 mph 1016.3mb 59f 56f
10:00 5ft 9s 7 9 mph 1016.3mb 58f 55f
9:00 5.5ft 10s 13 16 mph 1016mb 59f 55f
8:00 6ft 10s 2 4 mph 1016.1mb 59f 56f
7:00 5.5ft 8s 4 7 mph 1016mb 59f 57f
6:00 5.5ft 11s 2 4 mph 1015.7mb 58f 57f
5:00 6ft 10s  -  2 mph 1015.6mb 59f 57f
4:00 6ft 10s 7 9 mph 1015.8mb 59f 57f
3:00 5ft 10s 9 13 mph 1015.7mb 59f 57f
2:00 5.5ft 10s 13 16 mph 1015.8mb 59f 57f
1:00 6ft 10s 16 18 mph 1015.7mb 59f 57f
12:00 5.5ft 10s 16 18 mph 1015.5mb 59f 57f
dim. 07/20 11:00 6ft 10s 18 20 mph 1015.4mb 59f 57f
10:00 6.5ft 10s 18 20 mph 1015.4mb 59f 58f
9:00 6.5ft 10s 16 20 mph 1015.3mb 59f 58f
7:00 7ft 11s 18 22 mph 1015.3mb 59f 58f
6:00 7ft 11s 22 27 mph 1015mb 59f 58f
5:00 7ft 11s 18 22 mph 1015.2mb 59f 58f
4:00  -   -  18
mph
- - 58f
3:00 7.5ft 11s 18 22 mph 1015.4mb 59f 58f
2:00 7ft 11s 18 20 mph 1015.4mb 59f 58f
1:00 7ft 11s 16 18 mph 1015.4mb 59f 58f
12:00 7ft 11s 13 18 mph 1015.5mb 58f 58f
11:00 8ft 11s 13 16 mph 1015.3mb 58f 58f
10:00 8ft 11s 11 13 mph 1015.1mb 58f 58f
9:00 8.5ft 11s 11 16 mph 1015mb 58f 58f
8:00 8ft 11s 13 16 mph 1014.8mb 58f 57f
7:00 8ft 10s 16 20 mph 1014.7mb 58f 57f
6:00 8ft 11s 16 18 mph 1014.8mb 58f 57f
5:00 8ft 10s 13 16 mph 1014.7mb 58f 58f